Time;durP1;ratioP1;P1;durP2;ratioP2;P2;SDS_P1;SDS_P2;PMS_P1;PMS_P2;Temp;Humidity;BMP_temperature;BMP_pressure;BME280_temperature;BME280_humidity;BME280_pressure;Samples;Min_cycle;Max_cycle;Signal;HPM_P1;HPM_P2
2024/01/31 00:01:39;;;;;;;21.80;15.25;;;;;;;6.90;91.26;102327.06;6126986;23;19915;-72
2024/01/31 00:04:42;;;;;;;19.40;14.60;;;;;;;6.86;91.09;102331.41;6127032;23;20093;-72
2024/01/31 00:07:46;;;;;;;;;;;;;;;6.86;90.91;102335.72;6127748;23;20081;-71
2024/01/31 00:10:49;;;;;;;27.42;17.35;;;;;;;6.85;91.00;102339.22;6127100;23;19967;-72
2024/01/31 00:13:52;;;;;;;24.55;16.17;;;;;;;6.83;91.46;102340.94;6126723;23;20028;-72
2024/01/31 00:16:57;;;;;;;18.48;14.02;;;;;;;6.84;91.17;102347.91;6127244;23;20097;-73
2024/01/31 00:20:00;;;;;;;25.60;17.48;;;;;;;6.86;91.42;102346.13;6126979;23;20028;-72
2024/01/31 00:23:06;;;;;;;32.53;22.10;;;;;;;6.87;91.54;102342.69;6126845;23;20081;-73
2024/01/31 00:26:09;;;;;;;24.35;16.15;;;;;;;6.87;91.53;102340.06;6126660;23;20028;-71
2024/01/31 00:29:12;;;;;;;22.70;17.00;;;;;;;6.85;90.86;102345.28;6126725;23;20029;-71
2024/01/31 00:32:25;;;;;;;;;;;;;;;6.84;91.45;102342.69;6127091;23;20040;-71
2024/01/31 00:35:28;;;;;;;24.63;17.38;;;;;;;6.85;91.21;102334.00;6126756;23;19948;-72
2024/01/31 00:38:32;;;;;;;;;;;;;;;6.81;91.28;102338.38;6126834;23;20024;-72
2024/01/31 00:41:38;;;;;;;25.55;17.45;;;;;;;6.81;91.48;102345.31;6126416;23;19920;-71
2024/01/31 00:44:43;;;;;;;28.25;18.33;;;;;;;6.64;92.17;102346.31;6126425;23;20024;-73
2024/01/31 00:47:50;;;;;;;23.50;17.17;;;;;;;6.60;93.08;102341.13;6126457;23;20029;-72
2024/01/31 00:50:53;;;;;;;31.13;20.40;;;;;;;6.65;93.50;102344.56;6126149;23;20029;-72
2024/01/31 00:53:57;;;;;;;;;;;;;;;6.67;93.46;102341.09;6126870;23;20088;-72
2024/01/31 00:57:00;;;;;;;23.17;15.73;;;;;;;6.72;92.96;102331.50;6126035;23;19935;-72
2024/01/31 01:00:09;;;;;;;25.73;17.00;;;;;;;6.76;92.43;102334.94;6126122;23;20360;-72
2024/01/31 01:03:20;;;;;;;26.85;16.63;;;;;;;6.78;91.96;102327.16;6126054;23;20074;-73
2024/01/31 01:06:26;;;;;;;26.42;16.50;;;;;;;6.77;91.95;102323.69;6126204;23;20029;-73
2024/01/31 01:09:32;;;;;;;21.60;16.00;;;;;;;6.75;91.89;102334.06;6126410;23;20097;-73
2024/01/31 01:12:35;;;;;;;20.52;14.93;;;;;;;6.74;91.58;102326.31;6126468;23;20029;-73
2024/01/31 01:15:38;;;;;;;18.80;14.35;;;;;;;6.69;90.79;102317.66;6126599;23;20045;-73
2024/01/31 01:18:42;;;;;;;18.15;13.88;;;;;;;6.64;91.17;102322.91;6108414;23;20474;-73
2024/01/31 01:21:45;;;;;;;;;;;;;;;6.57;90.91;102329.00;6126671;23;20025;-73
2024/01/31 01:24:48;;;;;;;17.52;12.00;;;;;;;6.53;90.80;102328.16;6126739;23;19931;-73
2024/01/31 01:27:51;;;;;;;;;;;;;;;6.52;91.34;102336.00;6126126;23;20364;-72
2024/01/31 01:30:54;;;;;;;19.27;12.23;;;;;;;6.48;91.09;102335.16;6126426;23;20246;-72
2024/01/31 01:33:59;;;;;;;;;;;;;;;6.46;90.64;102339.47;6126693;23;20029;-72
2024/01/31 01:37:02;;;;;;;21.85;11.75;;;;;;;6.43;90.94;102351.63;6126647;23;19992;-73
2024/01/31 01:40:05;;;;;;;;;;;;;;;6.43;90.78;102343.84;6127048;23;20021;-73
2024/01/31 01:43:19;;;;;;;16.58;10.93;;;;;;;6.42;90.86;102348.19;6126607;23;19916;-72
2024/01/31 01:46:23;;;;;;;12.82;8.40;;;;;;;6.44;90.86;102337.75;6126500;23;20028;-73
2024/01/31 01:49:28;;;;;;;12.80;9.70;;;;;;;6.41;90.20;102350.75;6126355;23;20065;-72
2024/01/31 01:52:32;;;;;;;12.95;9.15;;;;;;;6.40;90.72;102352.50;6126499;23;20089;-72
2024/01/31 01:55:37;;;;;;;13.95;10.02;;;;;;;6.40;90.56;102352.50;6126221;23;20082;-73
2024/01/31 01:58:41;;;;;;;13.95;9.70;;;;;;;6.39;90.73;102352.53;6126174;23;20522;-73
2024/01/31 02:01:46;;;;;;;14.18;9.27;;;;;;;6.35;90.25;102350.78;6126121;23;20049;-73
2024/01/31 02:04:49;;;;;;;10.75;8.23;;;;;;;6.37;90.38;102356.84;6126097;23;20024;-73
2024/01/31 02:07:53;;;;;;;17.10;8.55;;;;;;;6.34;90.41;102362.06;6126153;23;20064;-73
2024/01/31 02:10:56;;;;;;;24.88;9.98;;;;;;;6.27;90.55;102359.50;6126060;23;20024;-73
2024/01/31 02:13:59;;;;;;;11.93;8.40;;;;;;;6.34;90.49;102367.28;6125923;23;20039;-73
2024/01/31 02:17:03;;;;;;;;;;;;;;;6.32;90.55;102369.88;6126603;23;20109;-72
2024/01/31 02:20:08;;;;;;;11.77;7.47;;;;;;;6.33;90.52;102365.56;6126223;23;19931;-71
2024/01/31 02:23:13;;;;;;;12.40;8.00;;;;;;;6.37;90.33;102367.25;6126154;23;20059;-72
2024/01/31 02:26:17;;;;;;;11.85;8.48;;;;;;;6.37;90.24;102362.91;6125480;23;20024;-71
2024/01/31 02:29:20;;;;;;;11.90;8.13;;;;;;;6.35;90.20;102363.78;6125976;23;20041;-71
2024/01/31 02:32:23;;;;;;;11.23;7.75;;;;;;;6.34;89.99;102362.06;6126122;23;20028;-71
2024/01/31 02:35:27;;;;;;;;;;;;;;;6.30;90.38;102376.81;6126472;23;20080;-71
2024/01/31 02:38:32;;;;;;;9.77;5.63;;;;;;;6.29;90.19;102365.56;6126021;23;19915;-71
2024/01/31 02:41:35;;;;;;;13.52;7.53;;;;;;;6.29;90.29;102365.56;6126044;23;20025;-71
2024/01/31 02:44:38;;;;;;;10.88;7.55;;;;;;;6.31;90.60;102367.28;6126053;23;20607;-72
2024/01/31 02:47:42;;;;;;;9.38;6.63;;;;;;;6.27;90.54;102380.28;6125727;23;20049;-72
2024/01/31 02:50:45;;;;;;;7.93;5.72;;;;;;;6.27;90.02;102377.69;6124996;23;20025;-72
2024/01/31 02:53:49;;;;;;;;;;;;;;;6.26;90.61;102378.56;6125942;23;20100;-71
2024/01/31 02:56:52;;;;;;;10.63;6.78;;;;;;;6.25;90.26;102374.25;6124602;23;20251;-72
2024/01/31 02:59:55;;;;;;;;;;;;;;;6.24;90.34;102372.50;6125347;23;20104;-71
2024/01/31 03:02:58;;;;;;;11.77;7.68;;;;;;;6.21;90.72;102372.53;6125337;23;19977;-72
2024/01/31 03:06:01;;;;;;;;;;;;;;;6.21;90.72;102377.72;6126079;23;20057;-72
2024/01/31 03:09:05;;;;;;;15.43;6.65;;;;;;;6.19;90.73;102379.47;6126007;23;20338;-72
2024/01/31 03:12:08;;;;;;;9.02;5.93;;;;;;;6.17;90.83;102386.41;6124354;23;20352;-71
2024/01/31 03:15:11;;;;;;;12.05;6.65;;;;;;;6.18;91.01;102387.25;6125675;23;20028;-71
2024/01/31 03:18:15;;;;;;;;;;;;;;;6.20;91.05;102377.75;6125665;23;20432;-72
2024/01/31 03:21:19;;;;;;;13.98;7.18;;;;;;;6.21;90.78;102382.91;6125228;23;19959;-72
2024/01/31 03:24:23;;;;;;;14.43;7.15;;;;;;;6.17;90.74;102390.72;6125399;23;20490;-72
2024/01/31 03:27:26;;;;;;;9.70;6.28;;;;;;;6.21;90.85;102395.91;6125208;23;20523;-72
2024/01/31 03:30:29;;;;;;;9.77;6.40;;;;;;;6.22;90.51;102395.06;6124578;23;20402;-72
2024/01/31 03:33:33;;;;;;;;;;;;;;;6.17;90.45;102399.38;6124776;23;20029;-72
2024/01/31 03:36:37;;;;;;;10.82;5.85;;;;;;;6.14;90.46;102396.81;6125141;23;19959;-72
2024/01/31 03:39:40;;;;;;;7.90;5.55;;;;;;;6.16;90.59;102400.25;6125133;23;20024;-71
2024/01/31 03:42:44;;;;;;;8.63;5.95;;;;;;;6.20;90.61;102403.72;6125479;23;20068;-72
2024/01/31 03:45:47;;;;;;;12.50;6.55;;;;;;;6.21;90.42;102406.28;6124951;23;20526;-72
2024/01/31 03:48:51;;;;;;;;;;;;;;;6.20;90.61;102406.31;6125433;23;20065;-72
2024/01/31 03:51:54;;;;;;;15.55;7.07;;;;;;;6.19;90.91;102412.34;6125176;23;19920;-72
2024/01/31 03:54:58;;;;;;;9.18;6.32;;;;;;;6.19;90.61;102410.66;6124714;23;20068;-72
2024/01/31 03:58:03;;;;;;;9.23;6.40;;;;;;;6.21;90.45;102414.09;6125282;23;20028;-72
2024/01/31 04:01:07;;;;;;;6.97;6.00;;;;;;;6.24;90.64;102405.41;6126549;23;20029;-71
2024/01/31 04:04:10;;;;;;;8.50;5.93;;;;;;;6.24;90.57;102413.22;6126765;23;20471;-72
2024/01/31 04:07:14;;;;;;;;;;;;;;;6.21;90.46;102408.88;6127305;23;20360;-72
2024/01/31 04:10:17;;;;;;;8.02;5.35;;;;;;;6.15;90.74;102414.09;6126489;23;19920;-72
2024/01/31 04:13:21;;;;;;;;;;;;;;;6.16;90.43;102408.06;6127325;23;20594;-72
2024/01/31 04:16:23;;;;;;;7.03;4.90;;;;;;;6.14;90.48;102411.53;6108970;23;20255;-72
2024/01/31 04:19:27;;;;;;;;;;;;;;;6.15;90.80;102411.50;6127352;23;20072;-72
2024/01/31 04:22:30;;;;;;;7.50;5.68;;;;;;;6.16;91.05;102414.97;6126457;23;19931;-72
2024/01/31 04:25:34;;;;;;;9.80;6.03;;;;;;;6.16;91.03;102421.03;6126772;23;20416;-72
2024/01/31 04:28:37;;;;;;;8.13;5.45;;;;;;;6.18;90.93;102429.69;6126766;23;20028;-71
2024/01/31 04:31:40;;;;;;;;;;;;;;;6.16;91.00;102415.84;6127234;23;20029;-72
2024/01/31 04:34:43;;;;;;;8.50;5.47;;;;;;;6.19;90.67;102410.66;6126504;23;19963;-73
2024/01/31 04:37:47;;;;;;;10.07;6.03;;;;;;;6.19;91.03;102410.66;6126921;23;20053;-71
2024/01/31 04:40:50;;;;;;;8.45;4.85;;;;;;;6.18;90.66;102403.69;6126851;23;20045;-72
2024/01/31 04:43:53;;;;;;;16.50;6.05;;;;;;;6.21;90.84;102402.84;6126493;23;20348;-72
2024/01/31 04:46:57;;;;;;;11.48;5.40;;;;;;;6.22;90.84;102400.25;6126930;23;20548;-71
2024/01/31 04:50:00;;;;;;;10.45;5.75;;;;;;;6.16;90.63;102399.38;6126908;23;20098;-73
2024/01/31 04:53:03;;;;;;;;;;;;;;;6.17;90.91;102398.53;6127520;23;20032;-73
2024/01/31 04:56:10;;;;;;;11.07;5.65;;;;;;;6.19;90.30;102392.47;6126756;23;19916;-71
2024/01/31 04:59:13;;;;;;;9.38;5.65;;;;;;;6.21;90.46;102395.91;6125735;23;20116;-72
2024/01/31 05:02:16;;;;;;;10.60;5.78;;;;;;;6.24;90.87;102401.09;6126284;23;20025;-72
2024/01/31 05:05:19;;;;;;;17.50;13.77;;;;;;;6.18;90.71;102400.25;6126725;23;20097;-72
2024/01/31 05:08:23;;;;;;;;;;;;;;;6.18;90.84;102393.31;6125915;23;20033;-73
2024/01/31 05:11:26;;;;;;;10.60;6.65;;;;;;;6.20;90.65;102395.91;6123703;23;19920;-72
2024/01/31 05:14:29;;;;;;;12.88;8.48;;;;;;;6.22;90.50;102395.06;6124804;23;20028;-72
2024/01/31 05:17:32;;;;;;;;;;;;;;;6.24;90.55;102393.28;6125811;23;20126;-74
2024/01/31 05:20:35;;;;;;;33.95;24.23;;;;;;;6.24;90.42;102392.44;6125149;23;19919;-77
2024/01/31 05:23:40;;;;;;;19.05;13.23;;;;;;;6.21;90.63;102385.50;6125746;23;20542;-78
2024/01/31 05:26:45;;;;;;;13.00;8.15;;;;;;;6.18;90.37;102382.91;6126279;23;20662;-74
2024/01/31 05:29:48;;;;;;;9.32;6.10;;;;;;;6.10;90.38;102379.50;6126424;23;20025;-71
2024/01/31 05:32:51;;;;;;;;;;;;;;;6.03;90.88;102372.59;6126859;23;20148;-75
2024/01/31 05:35:54;;;;;;;9.32;6.47;;;;;;;6.11;92.03;102364.78;6126649;23;20298;-72
2024/01/31 05:38:57;;;;;;;17.98;10.23;;;;;;;6.15;91.66;102372.53;6126592;23;20028;-73
2024/01/31 05:42:02;;;;;;;;;;;;;;;6.10;91.25;102369.13;6126996;23;20363;-72
2024/01/31 05:45:05;;;;;;;8.30;5.20;;;;;;;6.15;90.90;102377.75;6108167;23;19915;-70
2024/01/31 05:48:08;;;;;;;10.95;6.55;;;;;;;6.14;90.88;102367.38;6125984;23;20041;-73
2024/01/31 05:51:11;;;;;;;13.95;9.65;;;;;;;6.18;91.09;102367.34;6126239;23;20028;-74
2024/01/31 05:54:15;;;;;;;;;;;;;;;6.19;91.12;102374.28;6125437;23;20053;-72
2024/01/31 05:57:18;;;;;;;14.20;8.25;;;;;;;6.22;91.19;102379.47;6126314;23;19960;-71
2024/01/31 06:00:24;;;;;;;11.85;7.75;;;;;;;6.21;90.95;102384.66;6125914;23;20084;-71
2024/01/31 06:03:28;;;;;;;13.25;7.05;;;;;;;6.23;90.53;102385.53;6125479;23;20029;-71
2024/01/31 06:06:54;;;;;;;9.32;5.82;;;;;;;6.24;90.44;102379.44;6124752;23;20102;-71
2024/01/31 06:10:17;;;;;;;11.98;7.65;;;;;;;6.27;90.60;102382.88;6124739;23;20475;-72
2024/01/31 06:13:27;;;;;;;13.18;9.20;;;;;;;6.25;90.68;102395.03;6125011;23;20076;-72
2024/01/31 06:21:13;;;;;;;13.10;8.00;;;;;;;6.23;90.63;102395.91;6107991;23;20025;-71
2024/01/31 06:24:43;;;;;;;11.38;5.75;;;;;;;6.23;90.64;102404.56;6124930;23;20478;-71
2024/01/31 06:27:49;;;;;;;12.27;5.93;;;;;;;6.20;90.95;102407.16;6124838;23;20090;-71
2024/01/31 06:31:03;;;;;;;10.43;6.18;;;;;;;6.20;90.58;102412.38;6125416;23;20028;-71
2024/01/31 06:34:25;;;;;;;11.30;6.30;;;;;;;6.21;91.08;102403.69;6104901;23;20494;-72
2024/01/31 06:37:28;;;;;;;9.98;6.75;;;;;;;6.20;91.43;102409.75;6106147;23;20416;-70
2024/01/31 06:40:32;;;;;;;;;;;;;;;6.16;91.19;102410.66;6122267;23;20468;-71
2024/01/31 06:43:36;;;;;;;15.63;6.93;;;;;;;6.17;90.87;102412.38;6120986;23;19964;-72
2024/01/31 06:46:39;;;;;;;;;;;;;;;6.15;90.88;102403.72;6125096;23;20427;-70
2024/01/31 06:49:43;;;;;;;12.98;6.00;;;;;;;6.12;90.72;102403.72;6123927;23;19923;-70
2024/01/31 06:52:47;;;;;;;10.50;5.35;;;;;;;6.13;90.90;102410.66;6125269;23;20024;-71
2024/01/31 06:55:51;;;;;;;10.05;5.60;;;;;;;6.16;90.63;102418.44;6125510;23;20029;-71
2024/01/31 06:58:56;;;;;;;8.00;5.18;;;;;;;6.19;90.82;102421.03;6104757;23;20103;-71
2024/01/31 07:01:59;;;;;;;9.93;5.22;;;;;;;6.20;90.76;102417.56;6125898;23;20073;-71
2024/01/31 07:05:04;;;;;;;10.63;7.20;;;;;;;6.23;90.79;102427.94;6126018;23;20029;-71
2024/01/31 07:08:07;;;;;;;11.02;6.90;;;;;;;6.23;91.05;102427.06;6125913;23;20029;-72
2024/01/31 07:11:10;;;;;;;;;;;;;;;6.16;90.77;102436.63;6126361;23;20471;-71
2024/01/31 07:14:14;;;;;;;7.17;4.63;;;;;;;6.17;90.55;102427.97;6125987;23;19964;-71
2024/01/31 07:17:17;;;;;;;8.82;5.75;;;;;;;6.23;90.69;102434.88;6125434;23;20029;-72
2024/01/31 07:20:20;;;;;;;;;;;;;;;6.22;90.76;102436.63;6107371;23;20124;-73
2024/01/31 07:23:23;;;;;;;18.25;11.20;;;;;;;6.22;90.54;102440.91;6122763;23;19923;-73
2024/01/31 07:26:26;;;;;;;15.25;9.30;;;;;;;6.20;90.80;102427.94;6123072;23;20072;-72
2024/01/31 07:29:30;;;;;;;15.15;8.25;;;;;;;6.24;90.80;102434.84;6123946;23;20470;-72
2024/01/31 07:32:33;;;;;;;14.40;7.90;;;;;;;6.28;90.49;102431.38;6124275;23;20088;-71
2024/01/31 07:35:36;;;;;;;20.05;11.27;;;;;;;6.29;90.62;102437.44;6126208;23;20040;-72
2024/01/31 07:38:44;;;;;;;;;;;;;;;6.25;91.02;102439.19;6125894;23;20032;-72
2024/01/31 07:41:48;;;;;;;19.33;11.40;;;;;;;6.29;90.84;102433.13;6125523;23;19956;-72
2024/01/31 07:44:51;;;;;;;15.35;9.00;;;;;;;6.29;90.62;102437.44;6125372;23;20033;-75
2024/01/31 07:47:56;;;;;;;10.00;7.05;;;;;;;6.26;90.84;102424.47;6125436;23;20028;-73
2024/01/31 07:51:04;;;;;;;13.55;7.28;;;;;;;6.26;90.15;102424.47;6125199;23;20101;-77
2024/01/31 07:54:07;;;;;;;11.32;6.28;;;;;;;6.27;90.45;102426.19;6107425;23;20122;-70
2024/01/31 07:57:10;;;;;;;;;;;;;;;6.25;90.68;102434.00;6125796;23;20029;-73
2024/01/31 08:00:13;;;;;;;13.73;6.60;;;;;;;6.25;90.83;102434.00;6118244;23;19955;-70
2024/01/31 08:03:16;;;;;;;;;;;;;;;6.27;90.88;102432.25;6125620;23;20029;-72
2024/01/31 08:06:20;;;;;;;11.73;7.60;;;;;;;6.34;90.60;102442.63;6125183;23;19916;-71
2024/01/31 08:09:23;;;;;;;23.65;15.98;;;;;;;6.36;90.73;102444.34;6125107;23;20056;-75
2024/01/31 08:12:27;;;;;;;15.90;9.35;;;;;;;6.37;90.90;102447.81;6124891;23;20036;-72
2024/01/31 08:15:31;;;;;;;;;;;;;;;6.38;90.68;102446.91;6125667;23;20153;-72
2024/01/31 08:18:34;;;;;;;12.85;8.95;;;;;;;6.43;90.60;102445.19;6124853;23;20051;-72
2024/01/31 08:21:37;;;;;;;18.58;13.55;;;;;;;6.44;90.77;102445.16;6126299;23;20021;-73
2024/01/31 08:24:41;;;;;;;;;;;;;;;6.42;90.71;102435.66;6125492;23;20101;-73
2024/01/31 08:27:44;;;;;;;11.13;7.05;;;;;;;6.43;90.66;102427.84;6123707;23;20003;-73
2024/01/31 08:30:47;;;;;;;12.85;8.10;;;;;;;6.48;90.78;102439.09;6125130;23;20404;-72
2024/01/31 08:33:50;;;;;;;12.32;7.93;;;;;;;6.49;90.27;102429.56;6124886;23;20097;-73
2024/01/31 08:36:54;;;;;;;10.35;7.40;;;;;;;6.51;90.60;102428.69;6125109;23;20025;-73
2024/01/31 08:39:59;;;;;;;13.88;8.30;;;;;;;6.57;90.55;102430.38;6124800;23;20408;-70
2024/01/31 08:43:06;;;;;;;9.20;7.07;;;;;;;6.54;90.47;102427.81;6124975;23;20052;-75
2024/01/31 08:46:13;;;;;;;11.25;7.95;;;;;;;6.57;90.58;102430.38;6125080;23;20033;-73
2024/01/31 08:49:15;;;;;;;14.93;9.60;;;;;;;6.59;90.29;102431.25;6123981;23;20163;-75
2024/01/31 08:52:19;;;;;;;21.58;9.20;;;;;;;6.59;90.94;102436.44;6125196;23;20060;-85
2024/01/31 08:55:22;;;;;;;;;;;;;;;6.60;91.15;102434.69;6125218;23;20356;-69
2024/01/31 08:58:26;;;;;;;16.47;9.70;;;;;;;6.65;91.41;102436.41;6124066;23;19916;-80
2024/01/31 09:01:30;;;;;;;18.33;11.15;;;;;;;6.69;90.46;102430.31;6123586;23;20025;-79
2024/01/31 09:04:34;;;;;;;;;;;;;;;6.66;90.81;102422.53;6125441;23;20036;-78
2024/01/31 09:07:37;;;;;;;14.55;7.82;;;;;;;6.71;90.99;102419.91;6106680;23;19955;-73
2024/01/31 09:10:40;;;;;;;12.60;9.35;;;;;;;6.77;91.18;102419.03;6123290;23;20029;-77
2024/01/31 09:13:43;;;;;;;;;;;;;;;6.78;91.09;102418.13;6123935;23;20040;-84
2024/01/31 09:16:47;;;;;;;14.53;10.10;;;;;;;6.87;91.33;102416.34;6124603;23;19922;-78
2024/01/31 09:19:52;;;;;;;13.82;9.57;;;;;;;6.89;91.10;102408.50;6124612;23;20147;-85
2024/01/31 09:22:56;;;;;;;14.73;8.70;;;;;;;6.95;91.27;102409.34;6124319;23;20056;-73
2024/01/31 09:26:01;;;;;;;13.48;9.27;;;;;;;6.96;90.91;102416.28;6124826;23;20448;-84
2024/01/31 09:29:05;;;;;;;14.20;9.90;;;;;;;7.02;90.90;102417.97;6124744;23;20196;-81
2024/01/31 09:32:08;;;;;;;;;;;;;;;7.06;90.94;102426.63;6124928;23;20057;-77
2024/01/31 09:35:11;;;;;;;12.90;8.20;;;;;;;6.99;90.72;102425.81;6123916;23;20296;-78
2024/01/31 09:38:14;;;;;;;15.95;9.55;;;;;;;7.07;90.90;102423.13;6124463;23;20092;-76
2024/01/31 09:41:19;;;;;;;14.30;8.38;;;;;;;7.16;90.83;102429.13;6123166;23;20405;-75
2024/01/31 09:44:22;;;;;;;13.35;7.80;;;;;;;7.07;90.18;102424.00;6106487;23;20488;-74
2024/01/31 09:47:27;;;;;;;11.07;6.53;;;;;;;7.14;90.60;102427.41;6124256;23;20029;-75
2024/01/31 09:50:31;;;;;;;12.18;6.95;;;;;;;7.19;89.95;102429.13;6124237;23;20061;-74
2024/01/31 09:53:38;;;;;;;10.25;5.88;;;;;;;7.25;90.50;102429.94;6106251;23;20032;-71
2024/01/31 09:56:41;;;;;;;8.70;5.82;;;;;;;7.29;90.32;102426.44;6124278;23;20328;-72
2024/01/31 09:59:45;;;;;;;;;;;;;;;7.32;90.08;102429.88;6124847;23;20029;-79
2024/01/31 10:03:46;;;;;;;7.25;4.28;;;;;;;7.35;89.87;102434.19;6124784;23;19955;-87
2024/01/31 10:07:22;;;;;;;8.48;5.13;;;;;;;7.37;89.87;102422.03;6204320;22;20025;-83
2024/01/31 10:10:27;;;;;;;11.13;5.43;;;;;;;7.40;89.98;102435.00;6155191;23;20109;-76
2024/01/31 10:13:30;;;;;;;10.95;5.05;;;;;;;7.32;90.44;102431.63;6155143;23;20068;-73
2024/01/31 10:16:34;;;;;;;;;;;;;;;7.36;90.99;102438.53;6154195;23;20598;-70
2024/01/31 10:19:38;;;;;;;7.10;4.00;;;;;;;7.36;90.46;102433.31;6153706;23;20257;-70
2024/01/31 10:22:53;;;;;;;8.15;4.40;;;;;;;7.48;91.05;102440.16;6154311;23;20196;-75
2024/01/31 10:25:59;;;;;;;;;;;;;;;7.58;90.39;102444.41;6155438;23;20347;-79
2024/01/31 10:29:07;;;;;;;7.88;3.92;;;;;;;7.61;89.60;102442.63;6134566;23;20415;-69
2024/01/31 10:32:16;;;;;;;6.60;3.90;;;;;;;7.65;89.75;102439.13;6154339;23;20136;-83
2024/01/31 10:35:47;;;;;;;16.13;8.35;;;;;;;7.69;89.45;102439.97;6153196;23;20028;-86
2024/01/31 10:39:21;;;;;;;40.65;21.90;;;;;;;7.70;89.45;102441.69;6154328;23;20072;-86
2024/01/31 10:42:29;;;;;;;11.00;6.40;;;;;;;7.67;89.16;102445.19;6154722;23;20514;-74
2024/01/31 10:45:33;;;;;;;;;;;;;;;7.66;89.66;102447.81;6154995;23;20027;-83
2024/01/31 10:48:38;;;;;;;5.63;3.20;;;;;;;7.72;89.31;102433.84;6135647;23;20373;-85
2024/01/31 10:51:42;;;;;;;8.57;3.78;;;;;;;7.68;89.01;102436.47;6153951;23;20029;-84
2024/01/31 10:54:53;;;;;;;5.28;3.03;;;;;;;7.74;89.04;102437.31;6154638;23;20028;-85
2024/01/31 10:57:57;;;;;;;7.03;3.08;;;;;;;7.72;88.36;102426.03;6154715;23;20088;-84
2024/01/31 11:01:07;;;;;;;5.70;2.95;;;;;;;7.70;89.08;102418.25;6154759;23;20359;-86
2024/01/31 11:04:38;;;;;;;6.43;2.92;;;;;;;7.76;88.97;102417.34;6154630;23;20101;-83
2024/01/31 11:07:45;;;;;;;4.70;2.50;;;;;;;7.79;88.75;102404.28;6177330;23;20043;-83
2024/01/31 11:10:51;;;;;;;5.53;3.30;;;;;;;7.78;87.91;102402.53;6216095;23;20039;-83
2024/01/31 11:13:56;;;;;;;5.93;3.28;;;;;;;7.82;88.81;102401.66;6216173;23;20043;-83
2024/01/31 11:17:09;;;;;;;7.03;3.90;;;;;;;7.88;88.16;102393.75;6215830;23;20379;-84
2024/01/31 11:20:13;;;;;;;;;;;;;;;7.89;88.12;102392.88;6216504;23;20124;-83
2024/01/31 11:23:19;;;;;;;7.57;3.45;;;;;;;7.96;88.18;102386.72;6214754;23;19914;-84
2024/01/31 11:26:30;;;;;;;11.07;3.80;;;;;;;7.95;88.39;102371.97;6216237;23;20082;-83
2024/01/31 11:29:34;;;;;;;8.30;3.88;;;;;;;8.01;87.55;102368.41;6216069;23;20051;-83
2024/01/31 11:32:39;;;;;;;11.48;3.97;;;;;;;8.05;87.53;102365.78;6216409;23;20082;-83
2024/01/31 11:35:42;;;;;;;15.65;6.43;;;;;;;8.09;87.60;102361.38;6216171;23;20110;-84
2024/01/31 11:38:45;;;;;;;10.23;5.20;;;;;;;8.11;86.91;102357.03;6216195;23;20099;-83
2024/01/31 11:41:48;;;;;;;14.15;8.30;;;;;;;8.13;87.08;102352.63;6215929;23;20087;-83
2024/01/31 11:44:52;;;;;;;19.10;10.00;;;;;;;8.13;86.88;102358.69;6215798;23;20051;-83
2024/01/31 11:47:57;;;;;;;15.02;10.05;;;;;;;8.19;86.92;102341.28;6215765;23;20163;-83
2024/01/31 11:50:59;;;;;;;13.05;7.63;;;;;;;8.20;87.07;102335.19;6215860;23;20028;-83
2024/01/31 11:54:04;;;;;;;16.95;8.80;;;;;;;8.26;86.92;102316.84;6216131;23;20044;-83
2024/01/31 11:57:07;;;;;;;8.15;6.03;;;;;;;8.09;85.29;102320.56;6216545;23;20063;-84
2024/01/31 12:00:12;;;;;;;;;;;;;;;7.90;84.86;102317.31;6216401;23;20032;-86
2024/01/31 12:03:16;;;;;;;15.32;4.57;;;;;;;8.03;85.61;102315.41;6215610;23;20197;-82
2024/01/31 12:06:19;;;;;;;11.68;4.55;;;;;;;8.11;85.26;102318.78;6215549;23;20028;-81
2024/01/31 12:09:22;;;;;;;;;;;;;;;8.10;84.52;102316.19;6216000;23;20150;-81
2024/01/31 12:12:26;;;;;;;20.77;11.05;;;;;;;8.19;84.21;102304.78;6215530;23;19919;-82
2024/01/31 12:15:30;;;;;;;24.27;13.25;;;;;;;8.27;84.14;102293.38;6215509;23;20028;-82
2024/01/31 12:18:33;;;;;;;29.35;13.90;;;;;;;8.36;83.28;102300.22;6215262;23;20027;-83
2024/01/31 12:21:41;;;;;;;;;;;;;;;8.34;81.88;102291.56;6215966;23;20035;-83
2024/01/31 12:24:45;;;;;;;7.63;2.75;;;;;;;7.86;75.59;102278.31;6215462;23;19921;-82
2024/01/31 12:27:48;;;;;;;7.85;3.58;;;;;;;7.64;75.40;102275.97;6215288;23;20027;-82
2024/01/31 12:30:52;;;;;;;5.72;2.30;;;;;;;7.31;72.55;102271.19;6215171;23;20079;-81
2024/01/31 12:33:55;;;;;;;4.78;2.38;;;;;;;7.41;73.37;102263.25;6215490;23;20032;-82
2024/01/31 12:36:58;;;;;;;;;;;;;;;7.51;72.69;102258.78;6214766;23;20064;-83
2024/01/31 12:40:02;;;;;;;7.03;1.48;;;;;;;7.26;70.49;102262.53;6215663;23;19935;-84
2024/01/31 12:43:05;;;;;;;4.13;1.85;;;;;;;7.30;69.70;102251.22;6215390;23;20018;-83
2024/01/31 12:46:09;;;;;;;2.88;1.20;;;;;;;7.47;71.46;102254.50;6215312;23;20078;-84
2024/01/31 12:49:13;;;;;;;4.95;2.22;;;;;;;7.22;67.51;102252.16;6215455;23;20047;-81
2024/01/31 12:52:21;;;;;;;2.95;1.30;;;;;;;7.32;69.32;102249.47;6215471;23;20067;-78
2024/01/31 12:55:25;;;;;;;2.95;1.63;;;;;;;7.29;67.32;102242.56;6215366;23;20070;-80
2024/01/31 12:58:28;;;;;;;4.03;1.42;;;;;;;7.60;68.42;102240.47;6215658;23;20335;-77
2024/01/31 13:01:32;;;;;;;5.50;2.80;;;;;;;8.00;67.90;102242.53;6215333;23;20521;-79
2024/01/31 13:04:37;;;;;;;3.80;2.00;;;;;;;8.28;68.17;102229.09;6215370;23;20489;-82
2024/01/31 13:07:41;;;;;;;6.10;5.50;;;;;;;8.25;65.00;102224.78;6215115;23;20075;-83
2024/01/31 13:10:44;;;;;;;3.47;1.85;;;;;;;8.36;65.18;102224.63;6215249;23;20086;-81
2024/01/31 13:13:49;;;;;;;3.15;1.60;;;;;;;8.13;63.57;102222.34;6215260;23;20497;-81
2024/01/31 13:16:52;;;;;;;3.40;1.30;;;;;;;8.24;64.62;102230.03;6215148;23;20536;-80
2024/01/31 13:19:55;;;;;;;;;;;;;;;8.37;63.17;102226.34;6215546;23;20174;-81
2024/01/31 13:22:59;;;;;;;2.97;1.58;;;;;;;8.65;63.28;102232.00;6215050;23;19982;-82
2024/01/31 13:26:08;;;;;;;3.90;1.88;;;;;;;8.50;62.06;102233.13;6214031;23;20024;-82
2024/01/31 13:29:14;;;;;;;4.03;1.75;;;;;;;8.80;63.22;102220.44;6213640;23;20074;-82
2024/01/31 13:32:19;;;;;;;6.13;3.80;;;;;;;8.87;60.60;102215.97;6214773;23;20028;-81
2024/01/31 13:35:23;;;;;;;8.55;5.13;;;;;;;8.81;59.64;102212.59;6215052;23;20023;-81
2024/01/31 13:38:27;;;;;;;4.95;2.50;;;;;;;8.64;60.37;102213.75;6215826;23;20074;-81
2024/01/31 13:41:32;;;;;;;3.53;1.75;;;;;;;8.87;59.55;102211.63;6215580;23;20034;-81
2024/01/31 13:44:38;;;;;;;5.43;2.20;;;;;;;8.72;59.34;102210.16;6216418;23;20023;-82
2024/01/31 13:47:41;;;;;;;4.00;1.98;;;;;;;8.98;59.25;102199.22;6214890;23;20070;-82
2024/01/31 13:50:45;;;;;;;3.30;1.90;;;;;;;8.57;58.90;102194.75;6214639;23;20032;-82
2024/01/31 13:53:52;;;;;;;3.45;1.38;;;;;;;9.09;59.33;102191.19;6215073;23;20063;-82
2024/01/31 13:56:56;;;;;;;2.60;1.33;;;;;;;9.33;58.71;102176.78;6215697;23;20023;-82
2024/01/31 13:59:59;;;;;;;4.85;1.75;;;;;;;9.42;57.66;102176.63;6213239;23;20485;-84
2024/01/31 14:03:03;;;;;;;;;;;;;;;9.36;57.43;102184.56;6214885;23;20071;-83
2024/01/31 14:06:31;;;;;;;5.28;3.30;;;;;;;9.12;57.46;102192.88;6214439;23;19915;-82
2024/01/31 14:09:35;;;;;;;5.70;2.13;;;;;;;9.16;56.93;102177.16;6214245;23;20093;-82
2024/01/31 14:12:50;;;;;;;4.15;1.58;;;;;;;9.23;58.01;102172.66;6214728;23;20473;-83
2024/01/31 14:15:54;;;;;;;3.25;1.35;;;;;;;9.34;57.92;102168.06;6213405;23;20368;-82
2024/01/31 14:18:57;;;;;;;3.30;1.55;;;;;;;9.24;56.94;102169.16;6214666;23;20023;-82
2024/01/31 14:22:01;;;;;;;;;;;;;;;9.28;57.77;102170.81;6214841;23;20036;-81
2024/01/31 14:25:05;;;;;;;5.80;2.50;;;;;;;9.35;57.66;102172.41;6212716;23;19961;-81
2024/01/31 14:28:10;;;;;;;5.07;2.10;;;;;;;9.16;56.72;102166.72;6214352;23;20102;-79
2024/01/31 14:31:27;;;;;;;3.25;1.20;;;;;;;9.11;58.23;102160.72;6212093;23;20024;-80
2024/01/31 14:34:30;;;;;;;2.85;1.20;;;;;;;9.03;56.78;102173.03;6211294;23;20083;-81
2024/01/31 14:37:35;;;;;;;;;;;;;;;8.91;57.20;102181.97;6214340;23;20023;-86
2024/01/31 14:40:39;;;;;;;6.10;3.33;;;;;;;8.95;56.79;102174.94;6212717;23;19978;-86
2024/01/31 14:43:43;;;;;;;5.38;2.50;;;;;;;8.99;58.14;102176.59;6213980;23;20203;-78